sensor_id;sensor_type;location;lat;lon;timestamp;P1;durP1;ratioP1;P2;durP2;ratioP2
3133;SDS011;1577;49.912;10.924;2022-12-20T00:00:05;102.65;;;21.40;;
3133;SDS011;1577;49.912;10.924;2022-12-20T00:02:32;99.45;;;21.00;;
3133;SDS011;1577;49.912;10.924;2022-12-20T00:04:58;100.03;;;21.48;;
3133;SDS011;1577;49.912;10.924;2022-12-20T00:07:24;98.82;;;21.65;;
3133;SDS011;1577;49.912;10.924;2022-12-20T00:09:50;99.28;;;21.48;;
3133;SDS011;1577;49.912;10.924;2022-12-20T00:12:16;102.23;;;21.13;;
3133;SDS011;1577;49.912;10.924;2022-12-20T00:14:42;106.57;;;23.20;;
3133;SDS011;1577;49.912;10.924;2022-12-20T00:17:08;101.97;;;21.27;;
3133;SDS011;1577;49.912;10.924;2022-12-20T00:19:34;96.10;;;20.30;;
3133;SDS011;1577;49.912;10.924;2022-12-20T00:22:00;99.28;;;19.58;;
3133;SDS011;1577;49.912;10.924;2022-12-20T00:24:26;101.70;;;20.58;;
3133;SDS011;1577;49.912;10.924;2022-12-20T00:26:55;103.38;;;21.20;;
3133;SDS011;1577;49.912;10.924;2022-12-20T00:29:21;97.65;;;19.70;;
3133;SDS011;1577;49.912;10.924;2022-12-20T00:31:46;100.22;;;21.73;;
3133;SDS011;1577;49.912;10.924;2022-12-20T00:34:12;100.33;;;20.90;;
3133;SDS011;1577;49.912;10.924;2022-12-20T00:36:38;98.23;;;19.40;;
3133;SDS011;1577;49.912;10.924;2022-12-20T00:39:05;97.97;;;20.38;;
3133;SDS011;1577;49.912;10.924;2022-12-20T00:41:32;97.78;;;19.33;;
3133;SDS011;1577;49.912;10.924;2022-12-20T00:43:58;99.85;;;19.17;;
3133;SDS011;1577;49.912;10.924;2022-12-20T00:46:25;94.93;;;19.70;;
3133;SDS011;1577;49.912;10.924;2022-12-20T00:48:51;97.28;;;20.77;;
3133;SDS011;1577;49.912;10.924;2022-12-20T00:51:19;96.53;;;18.52;;
3133;SDS011;1577;49.912;10.924;2022-12-20T00:53:45;99.00;;;21.27;;
3133;SDS011;1577;49.912;10.924;2022-12-20T00:56:12;97.05;;;19.90;;
3133;SDS011;1577;49.912;10.924;2022-12-20T00:58:39;95.45;;;19.20;;
3133;SDS011;1577;49.912;10.924;2022-12-20T01:01:06;93.32;;;18.77;;
3133;SDS011;1577;49.912;10.924;2022-12-20T01:03:32;99.55;;;20.80;;
3133;SDS011;1577;49.912;10.924;2022-12-20T01:05:59;100.78;;;20.30;;
3133;SDS011;1577;49.912;10.924;2022-12-20T01:08:29;93.28;;;18.40;;
3133;SDS011;1577;49.912;10.924;2022-12-20T01:13:25;98.97;;;20.02;;
3133;SDS011;1577;49.912;10.924;2022-12-20T01:15:51;102.80;;;20.92;;
3133;SDS011;1577;49.912;10.924;2022-12-20T01:18:18;95.93;;;18.35;;
3133;SDS011;1577;49.912;10.924;2022-12-20T01:20:44;92.88;;;18.83;;
3133;SDS011;1577;49.912;10.924;2022-12-20T01:23:10;97.20;;;19.58;;
3133;SDS011;1577;49.912;10.924;2022-12-20T01:25:36;93.67;;;18.57;;
3133;SDS011;1577;49.912;10.924;2022-12-20T01:28:02;95.87;;;19.57;;
3133;SDS011;1577;49.912;10.924;2022-12-20T01:30:28;98.65;;;20.30;;
3133;SDS011;1577;49.912;10.924;2022-12-20T01:32:54;98.07;;;21.38;;
3133;SDS011;1577;49.912;10.924;2022-12-20T01:35:20;100.70;;;20.77;;
3133;SDS011;1577;49.912;10.924;2022-12-20T01:37:46;98.07;;;19.02;;
3133;SDS011;1577;49.912;10.924;2022-12-20T01:40:12;97.35;;;19.65;;
3133;SDS011;1577;49.912;10.924;2022-12-20T01:42:38;109.55;;;22.38;;
3133;SDS011;1577;49.912;10.924;2022-12-20T01:45:06;98.70;;;19.50;;
3133;SDS011;1577;49.912;10.924;2022-12-20T01:47:33;101.82;;;22.60;;
3133;SDS011;1577;49.912;10.924;2022-12-20T01:49:59;98.15;;;21.15;;
3133;SDS011;1577;49.912;10.924;2022-12-20T01:52:30;100.22;;;20.08;;
3133;SDS011;1577;49.912;10.924;2022-12-20T01:57:40;94.55;;;19.63;;
3133;SDS011;1577;49.912;10.924;2022-12-20T02:00:07;97.22;;;20.23;;
3133;SDS011;1577;49.912;10.924;2022-12-20T02:02:34;102.68;;;21.13;;
3133;SDS011;1577;49.912;10.924;2022-12-20T02:05:00;95.47;;;19.55;;
3133;SDS011;1577;49.912;10.924;2022-12-20T02:07:27;101.32;;;22.30;;
3133;SDS011;1577;49.912;10.924;2022-12-20T02:09:55;95.35;;;21.75;;
3133;SDS011;1577;49.912;10.924;2022-12-20T02:12:25;100.35;;;21.38;;
3133;SDS011;1577;49.912;10.924;2022-12-20T02:30:53;93.38;;;18.80;;
3133;SDS011;1577;49.912;10.924;2022-12-20T02:33:20;93.82;;;18.55;;
3133;SDS011;1577;49.912;10.924;2022-12-20T02:35:46;99.75;;;19.98;;
3133;SDS011;1577;49.912;10.924;2022-12-20T02:38:27;100.13;;;19.67;;
3133;SDS011;1577;49.912;10.924;2022-12-20T02:40:55;96.07;;;19.77;;
3133;SDS011;1577;49.912;10.924;2022-12-20T02:43:22;101.15;;;21.38;;
3133;SDS011;1577;49.912;10.924;2022-12-20T02:46:07;101.05;;;21.40;;
3133;SDS011;1577;49.912;10.924;2022-12-20T02:48:34;101.13;;;19.50;;
3133;SDS011;1577;49.912;10.924;2022-12-20T02:51:02;100.53;;;21.35;;
3133;SDS011;1577;49.912;10.924;2022-12-20T02:53:28;99.25;;;20.95;;
3133;SDS011;1577;49.912;10.924;2022-12-20T02:58:22;100.53;;;21.70;;
3133;SDS011;1577;49.912;10.924;2022-12-20T03:00:51;101.05;;;21.77;;
3133;SDS011;1577;49.912;10.924;2022-12-20T03:03:17;99.75;;;20.88;;
3133;SDS011;1577;49.912;10.924;2022-12-20T03:05:46;102.15;;;20.00;;
3133;SDS011;1577;49.912;10.924;2022-12-20T03:08:13;99.25;;;21.25;;
3133;SDS011;1577;49.912;10.924;2022-12-20T03:10:40;100.75;;;20.92;;
3133;SDS011;1577;49.912;10.924;2022-12-20T03:13:06;96.43;;;20.25;;
3133;SDS011;1577;49.912;10.924;2022-12-20T03:15:32;100.30;;;20.80;;
3133;SDS011;1577;49.912;10.924;2022-12-20T03:17:58;100.93;;;20.92;;
3133;SDS011;1577;49.912;10.924;2022-12-20T03:20:24;97.60;;;20.47;;
3133;SDS011;1577;49.912;10.924;2022-12-20T03:22:50;96.47;;;20.20;;
3133;SDS011;1577;49.912;10.924;2022-12-20T03:25:16;99.77;;;20.30;;
3133;SDS011;1577;49.912;10.924;2022-12-20T03:27:42;98.47;;;20.83;;
3133;SDS011;1577;49.912;10.924;2022-12-20T03:30:08;107.83;;;23.30;;
3133;SDS011;1577;49.912;10.924;2022-12-20T03:32:34;97.72;;;19.55;;
3133;SDS011;1577;49.912;10.924;2022-12-20T03:35:00;100.53;;;20.80;;
3133;SDS011;1577;49.912;10.924;2022-12-20T03:37:26;100.37;;;22.77;;
3133;SDS011;1577;49.912;10.924;2022-12-20T03:39:52;97.55;;;19.70;;
3133;SDS011;1577;49.912;10.924;2022-12-20T03:42:18;100.20;;;22.37;;
3133;SDS011;1577;49.912;10.924;2022-12-20T03:44:47;103.75;;;21.10;;
3133;SDS011;1577;49.912;10.924;2022-12-20T03:47:13;97.07;;;20.70;;
3133;SDS011;1577;49.912;10.924;2022-12-20T03:49:39;102.67;;;22.70;;
3133;SDS011;1577;49.912;10.924;2022-12-20T03:52:10;100.30;;;20.52;;
3133;SDS011;1577;49.912;10.924;2022-12-20T03:54:36;98.22;;;20.55;;
3133;SDS011;1577;49.912;10.924;2022-12-20T03:57:05;101.77;;;20.63;;
3133;SDS011;1577;49.912;10.924;2022-12-20T03:59:31;100.53;;;22.27;;
3133;SDS011;1577;49.912;10.924;2022-12-20T04:02:01;99.75;;;21.23;;
3133;SDS011;1577;49.912;10.924;2022-12-20T04:04:27;108.38;;;23.65;;
3133;SDS011;1577;49.912;10.924;2022-12-20T04:06:53;98.82;;;21.60;;
3133;SDS011;1577;49.912;10.924;2022-12-20T04:09:19;103.87;;;24.00;;
3133;SDS011;1577;49.912;10.924;2022-12-20T04:11:45;102.63;;;21.50;;
3133;SDS011;1577;49.912;10.924;2022-12-20T04:14:11;97.93;;;22.23;;
3133;SDS011;1577;49.912;10.924;2022-12-20T04:16:37;101.03;;;21.37;;
3133;SDS011;1577;49.912;10.924;2022-12-20T04:19:03;98.93;;;21.02;;
3133;SDS011;1577;49.912;10.924;2022-12-20T04:21:30;98.47;;;21.20;;
3133;SDS011;1577;49.912;10.924;2022-12-20T04:23:56;102.13;;;22.33;;
3133;SDS011;1577;49.912;10.924;2022-12-20T04:26:23;100.38;;;22.98;;
3133;SDS011;1577;49.912;10.924;2022-12-20T04:28:49;98.32;;;22.05;;
3133;SDS011;1577;49.912;10.924;2022-12-20T04:31:15;99.38;;;19.65;;
3133;SDS011;1577;49.912;10.924;2022-12-20T04:33:41;101.47;;;21.52;;
3133;SDS011;1577;49.912;10.924;2022-12-20T04:36:07;103.90;;;22.92;;
3133;SDS011;1577;49.912;10.924;2022-12-20T04:38:33;103.38;;;24.27;;
3133;SDS011;1577;49.912;10.924;2022-12-20T04:40:59;100.07;;;21.65;;
3133;SDS011;1577;49.912;10.924;2022-12-20T04:43:26;98.13;;;21.20;;
3133;SDS011;1577;49.912;10.924;2022-12-20T04:45:53;105.05;;;23.02;;
3133;SDS011;1577;49.912;10.924;2022-12-20T04:48:23;97.97;;;20.50;;
3133;SDS011;1577;49.912;10.924;2022-12-20T04:50:51;105.65;;;22.60;;
3133;SDS011;1577;49.912;10.924;2022-12-20T04:53:17;101.55;;;21.73;;
3133;SDS011;1577;49.912;10.924;2022-12-20T04:56:02;100.15;;;21.52;;
3133;SDS011;1577;49.912;10.924;2022-12-20T04:58:28;98.90;;;21.45;;
3133;SDS011;1577;49.912;10.924;2022-12-20T05:00:58;100.30;;;22.95;;
3133;SDS011;1577;49.912;10.924;2022-12-20T05:03:24;99.50;;;22.33;;
3133;SDS011;1577;49.912;10.924;2022-12-20T05:05:50;108.43;;;23.77;;
3133;SDS011;1577;49.912;10.924;2022-12-20T05:08:16;103.00;;;22.75;;
3133;SDS011;1577;49.912;10.924;2022-12-20T05:10:42;98.83;;;21.87;;
3133;SDS011;1577;49.912;10.924;2022-12-20T05:13:08;107.72;;;23.45;;
3133;SDS011;1577;49.912;10.924;2022-12-20T05:15:34;109.07;;;24.40;;
3133;SDS011;1577;49.912;10.924;2022-12-20T05:18:01;102.32;;;22.45;;
3133;SDS011;1577;49.912;10.924;2022-12-20T05:20:27;105.10;;;23.10;;
3133;SDS011;1577;49.912;10.924;2022-12-20T05:22:54;100.63;;;21.83;;
3133;SDS011;1577;49.912;10.924;2022-12-20T05:25:39;99.35;;;22.55;;
3133;SDS011;1577;49.912;10.924;2022-12-20T05:28:34;100.25;;;21.95;;
3133;SDS011;1577;49.912;10.924;2022-12-20T05:31:00;105.40;;;24.08;;
3133;SDS011;1577;49.912;10.924;2022-12-20T05:33:27;99.45;;;21.67;;
3133;SDS011;1577;49.912;10.924;2022-12-20T05:35:54;103.72;;;23.30;;
3133;SDS011;1577;49.912;10.924;2022-12-20T05:38:26;101.22;;;22.05;;
3133;SDS011;1577;49.912;10.924;2022-12-20T05:40:52;101.37;;;22.40;;
3133;SDS011;1577;49.912;10.924;2022-12-20T05:43:18;105.40;;;22.70;;
3133;SDS011;1577;49.912;10.924;2022-12-20T05:45:48;103.90;;;21.77;;
3133;SDS011;1577;49.912;10.924;2022-12-20T05:48:15;103.43;;;22.38;;
3133;SDS011;1577;49.912;10.924;2022-12-20T05:50:41;100.55;;;22.17;;
3133;SDS011;1577;49.912;10.924;2022-12-20T05:53:08;104.63;;;24.15;;
3133;SDS011;1577;49.912;10.924;2022-12-20T05:55:34;105.93;;;22.45;;
3133;SDS011;1577;49.912;10.924;2022-12-20T05:58:00;100.00;;;22.80;;
3133;SDS011;1577;49.912;10.924;2022-12-20T06:00:26;104.53;;;24.10;;
3133;SDS011;1577;49.912;10.924;2022-12-20T06:02:52;100.40;;;22.27;;
3133;SDS011;1577;49.912;10.924;2022-12-20T06:05:18;109.47;;;23.40;;
3133;SDS011;1577;49.912;10.924;2022-12-20T06:07:44;106.05;;;24.45;;
3133;SDS011;1577;49.912;10.924;2022-12-20T06:10:10;108.33;;;24.67;;
3133;SDS011;1577;49.912;10.924;2022-12-20T06:12:36;104.07;;;25.65;;
3133;SDS011;1577;49.912;10.924;2022-12-20T06:15:06;104.85;;;24.92;;
3133;SDS011;1577;49.912;10.924;2022-12-20T06:17:33;105.32;;;25.15;;
3133;SDS011;1577;49.912;10.924;2022-12-20T06:19:59;107.93;;;25.83;;
3133;SDS011;1577;49.912;10.924;2022-12-20T06:22:25;110.75;;;23.95;;
3133;SDS011;1577;49.912;10.924;2022-12-20T06:24:51;102.80;;;23.70;;
3133;SDS011;1577;49.912;10.924;2022-12-20T06:27:17;103.10;;;24.37;;
3133;SDS011;1577;49.912;10.924;2022-12-20T06:29:45;100.30;;;22.50;;
3133;SDS011;1577;49.912;10.924;2022-12-20T06:32:15;103.57;;;23.88;;
3133;SDS011;1577;49.912;10.924;2022-12-20T06:34:42;100.28;;;23.13;;
3133;SDS011;1577;49.912;10.924;2022-12-20T06:37:08;111.72;;;25.00;;
3133;SDS011;1577;49.912;10.924;2022-12-20T06:39:36;103.45;;;22.90;;
3133;SDS011;1577;49.912;10.924;2022-12-20T06:42:03;101.23;;;24.03;;
3133;SDS011;1577;49.912;10.924;2022-12-20T06:44:29;100.47;;;22.80;;
3133;SDS011;1577;49.912;10.924;2022-12-20T06:46:55;100.60;;;20.60;;
3133;SDS011;1577;49.912;10.924;2022-12-20T06:49:21;111.30;;;24.35;;
3133;SDS011;1577;49.912;10.924;2022-12-20T06:51:47;102.23;;;22.27;;
3133;SDS011;1577;49.912;10.924;2022-12-20T06:54:13;103.20;;;22.50;;
3133;SDS011;1577;49.912;10.924;2022-12-20T06:56:39;100.40;;;22.63;;
3133;SDS011;1577;49.912;10.924;2022-12-20T06:59:05;104.03;;;24.27;;
3133;SDS011;1577;49.912;10.924;2022-12-20T07:01:31;101.97;;;23.30;;
3133;SDS011;1577;49.912;10.924;2022-12-20T07:03:57;102.28;;;22.80;;
3133;SDS011;1577;49.912;10.924;2022-12-20T07:06:23;108.53;;;23.90;;
3133;SDS011;1577;49.912;10.924;2022-12-20T07:08:56;110.10;;;24.92;;
3133;SDS011;1577;49.912;10.924;2022-12-20T07:11:22;102.60;;;22.90;;
3133;SDS011;1577;49.912;10.924;2022-12-20T07:13:48;102.15;;;24.23;;
3133;SDS011;1577;49.912;10.924;2022-12-20T07:16:14;101.60;;;24.70;;
3133;SDS011;1577;49.912;10.924;2022-12-20T07:18:40;100.47;;;22.60;;
3133;SDS011;1577;49.912;10.924;2022-12-20T07:21:06;105.70;;;23.55;;
3133;SDS011;1577;49.912;10.924;2022-12-20T07:23:32;103.67;;;22.77;;
3133;SDS011;1577;49.912;10.924;2022-12-20T07:25:59;112.43;;;27.13;;
3133;SDS011;1577;49.912;10.924;2022-12-20T07:28:25;108.05;;;23.50;;
3133;SDS011;1577;49.912;10.924;2022-12-20T07:30:52;103.63;;;22.40;;
3133;SDS011;1577;49.912;10.924;2022-12-20T07:33:20;102.95;;;24.08;;
3133;SDS011;1577;49.912;10.924;2022-12-20T07:35:48;108.38;;;25.25;;
3133;SDS011;1577;49.912;10.924;2022-12-20T07:38:14;122.15;;;31.58;;
3133;SDS011;1577;49.912;10.924;2022-12-20T07:40:44;113.07;;;27.45;;
3133;SDS011;1577;49.912;10.924;2022-12-20T07:43:10;108.60;;;25.60;;
3133;SDS011;1577;49.912;10.924;2022-12-20T07:45:36;109.30;;;25.23;;
3133;SDS011;1577;49.912;10.924;2022-12-20T07:48:05;104.55;;;25.00;;
3133;SDS011;1577;49.912;10.924;2022-12-20T07:50:31;103.28;;;22.35;;
3133;SDS011;1577;49.912;10.924;2022-12-20T07:52:58;103.47;;;23.95;;
3133;SDS011;1577;49.912;10.924;2022-12-20T07:55:24;107.57;;;23.27;;
3133;SDS011;1577;49.912;10.924;2022-12-20T07:57:52;107.30;;;24.58;;
3133;SDS011;1577;49.912;10.924;2022-12-20T08:00:19;104.10;;;24.10;;
3133;SDS011;1577;49.912;10.924;2022-12-20T08:05:11;99.83;;;21.80;;
3133;SDS011;1577;49.912;10.924;2022-12-20T08:07:38;105.43;;;23.17;;
3133;SDS011;1577;49.912;10.924;2022-12-20T08:10:06;97.40;;;19.80;;
3133;SDS011;1577;49.912;10.924;2022-12-20T08:12:33;98.47;;;21.73;;
3133;SDS011;1577;49.912;10.924;2022-12-20T08:15:00;101.10;;;22.85;;
3133;SDS011;1577;49.912;10.924;2022-12-20T08:17:26;99.00;;;21.40;;
3133;SDS011;1577;49.912;10.924;2022-12-20T08:19:52;100.37;;;21.30;;
3133;SDS011;1577;49.912;10.924;2022-12-20T08:22:18;100.83;;;22.80;;
3133;SDS011;1577;49.912;10.924;2022-12-20T08:24:44;128.47;;;24.57;;
3133;SDS011;1577;49.912;10.924;2022-12-20T08:27:10;119.77;;;24.40;;
3133;SDS011;1577;49.912;10.924;2022-12-20T08:29:36;99.60;;;22.43;;
3133;SDS011;1577;49.912;10.924;2022-12-20T08:32:02;106.33;;;22.70;;
3133;SDS011;1577;49.912;10.924;2022-12-20T08:34:28;95.73;;;20.43;;
3133;SDS011;1577;49.912;10.924;2022-12-20T08:36:55;97.90;;;20.70;;
3133;SDS011;1577;49.912;10.924;2022-12-20T08:39:21;98.23;;;20.13;;
3133;SDS011;1577;49.912;10.924;2022-12-20T08:41:47;96.97;;;21.80;;
3133;SDS011;1577;49.912;10.924;2022-12-20T08:44:13;102.60;;;21.30;;
3133;SDS011;1577;49.912;10.924;2022-12-20T08:46:39;99.43;;;21.60;;
3133;SDS011;1577;49.912;10.924;2022-12-20T08:49:05;92.17;;;18.90;;
3133;SDS011;1577;49.912;10.924;2022-12-20T08:51:31;98.73;;;20.47;;
3133;SDS011;1577;49.912;10.924;2022-12-20T08:53:57;101.97;;;22.30;;
3133;SDS011;1577;49.912;10.924;2022-12-20T08:56:23;97.63;;;22.17;;
3133;SDS011;1577;49.912;10.924;2022-12-20T08:58:49;98.67;;;21.00;;
3133;SDS011;1577;49.912;10.924;2022-12-20T09:01:17;97.73;;;19.20;;
3133;SDS011;1577;49.912;10.924;2022-12-20T09:03:43;98.10;;;20.20;;
3133;SDS011;1577;49.912;10.924;2022-12-20T09:06:10;97.93;;;20.40;;
3133;SDS011;1577;49.912;10.924;2022-12-20T09:08:37;100.33;;;20.57;;
3133;SDS011;1577;49.912;10.924;2022-12-20T09:11:08;93.07;;;19.03;;
3133;SDS011;1577;49.912;10.924;2022-12-20T09:13:35;93.17;;;19.00;;
3133;SDS011;1577;49.912;10.924;2022-12-20T09:16:02;94.03;;;20.40;;
3133;SDS011;1577;49.912;10.924;2022-12-20T09:18:28;96.50;;;20.07;;
3133;SDS011;1577;49.912;10.924;2022-12-20T09:20:54;99.07;;;19.80;;
3133;SDS011;1577;49.912;10.924;2022-12-20T09:23:20;103.50;;;23.93;;
3133;SDS011;1577;49.912;10.924;2022-12-20T09:25:46;95.53;;;21.57;;
3133;SDS011;1577;49.912;10.924;2022-12-20T09:28:12;96.67;;;23.10;;
3133;SDS011;1577;49.912;10.924;2022-12-20T09:30:41;98.53;;;19.70;;
3133;SDS011;1577;49.912;10.924;2022-12-20T09:33:07;102.80;;;21.83;;
3133;SDS011;1577;49.912;10.924;2022-12-20T09:35:33;96.10;;;19.23;;
3133;SDS011;1577;49.912;10.924;2022-12-20T09:37:59;96.17;;;20.13;;
3133;SDS011;1577;49.912;10.924;2022-12-20T09:40:26;93.67;;;19.63;;
3133;SDS011;1577;49.912;10.924;2022-12-20T09:42:54;100.73;;;20.50;;
3133;SDS011;1577;49.912;10.924;2022-12-20T09:45:23;92.07;;;19.57;;
3133;SDS011;1577;49.912;10.924;2022-12-20T09:47:50;92.10;;;20.50;;
3133;SDS011;1577;49.912;10.924;2022-12-20T09:50:16;97.03;;;22.33;;
3133;SDS011;1577;49.912;10.924;2022-12-20T09:52:54;97.70;;;22.73;;
3133;SDS011;1577;49.912;10.924;2022-12-20T09:55:30;96.37;;;23.20;;
3133;SDS011;1577;49.912;10.924;2022-12-20T10:00:47;98.60;;;22.93;;
3133;SDS011;1577;49.912;10.924;2022-12-20T10:03:20;95.77;;;21.20;;
3133;SDS011;1577;49.912;10.924;2022-12-20T10:05:51;99.70;;;21.90;;
3133;SDS011;1577;49.912;10.924;2022-12-20T10:08:37;96.60;;;23.00;;
3133;SDS011;1577;49.912;10.924;2022-12-20T10:24:00;91.70;;;18.03;;
3133;SDS011;1577;49.912;10.924;2022-12-20T10:26:27;97.67;;;19.53;;
3133;SDS011;1577;49.912;10.924;2022-12-20T10:28:56;92.80;;;19.53;;
3133;SDS011;1577;49.912;10.924;2022-12-20T10:31:23;90.70;;;18.90;;
3133;SDS011;1577;49.912;10.924;2022-12-20T10:33:49;90.80;;;18.83;;
3133;SDS011;1577;49.912;10.924;2022-12-20T10:38:58;89.90;;;19.30;;
3133;SDS011;1577;49.912;10.924;2022-12-20T10:41:26;91.97;;;19.70;;
3133;SDS011;1577;49.912;10.924;2022-12-20T10:44:02;93.87;;;18.40;;
3133;SDS011;1577;49.912;10.924;2022-12-20T10:46:39;88.07;;;16.60;;
3133;SDS011;1577;49.912;10.924;2022-12-20T10:51:51;96.60;;;19.90;;
3133;SDS011;1577;49.912;10.924;2022-12-20T10:54:38;89.17;;;18.87;;
3133;SDS011;1577;49.912;10.924;2022-12-20T10:57:22;89.50;;;17.63;;
3133;SDS011;1577;49.912;10.924;2022-12-20T11:07:31;99.67;;;21.50;;
3133;SDS011;1577;49.912;10.924;2022-12-20T11:10:01;95.27;;;21.93;;
3133;SDS011;1577;49.912;10.924;2022-12-20T11:12:27;95.57;;;22.97;;
3133;SDS011;1577;49.912;10.924;2022-12-20T11:17:44;99.33;;;25.83;;
3133;SDS011;1577;49.912;10.924;2022-12-20T11:25:38;93.30;;;21.50;;
3133;SDS011;1577;49.912;10.924;2022-12-20T11:28:13;92.73;;;22.07;;
3133;SDS011;1577;49.912;10.924;2022-12-20T11:43:42;98.47;;;21.10;;
3133;SDS011;1577;49.912;10.924;2022-12-20T11:46:15;84.47;;;15.20;;
3133;SDS011;1577;49.912;10.924;2022-12-20T11:58:54;89.07;;;17.90;;
3133;SDS011;1577;49.912;10.924;2022-12-20T12:01:45;85.80;;;17.70;;
3133;SDS011;1577;49.912;10.924;2022-12-20T12:04:11;86.07;;;17.07;;
3133;SDS011;1577;49.912;10.924;2022-12-20T12:06:40;84.03;;;18.37;;
3133;SDS011;1577;49.912;10.924;2022-12-20T12:09:27;88.53;;;19.27;;
3133;SDS011;1577;49.912;10.924;2022-12-20T12:12:02;88.97;;;18.00;;
3133;SDS011;1577;49.912;10.924;2022-12-20T12:17:19;84.60;;;16.90;;
3133;SDS011;1577;49.912;10.924;2022-12-20T12:19:47;84.60;;;15.67;;
3133;SDS011;1577;49.912;10.924;2022-12-20T12:22:19;85.33;;;18.10;;
3133;SDS011;1577;49.912;10.924;2022-12-20T12:24:50;89.63;;;16.70;;
3133;SDS011;1577;49.912;10.924;2022-12-20T12:27:22;94.57;;;16.70;;
3133;SDS011;1577;49.912;10.924;2022-12-20T12:29:48;88.47;;;17.57;;
3133;SDS011;1577;49.912;10.924;2022-12-20T12:32:20;81.60;;;15.97;;
3133;SDS011;1577;49.912;10.924;2022-12-20T12:38:02;82.50;;;16.50;;
3133;SDS011;1577;49.912;10.924;2022-12-20T12:45:45;81.60;;;17.17;;
3133;SDS011;1577;49.912;10.924;2022-12-20T12:50:41;77.77;;;14.40;;
3133;SDS011;1577;49.912;10.924;2022-12-20T12:53:14;82.33;;;16.00;;
3133;SDS011;1577;49.912;10.924;2022-12-20T12:55:44;84.63;;;15.90;;
3133;SDS011;1577;49.912;10.924;2022-12-20T13:03:16;80.70;;;15.33;;
3133;SDS011;1577;49.912;10.924;2022-12-20T13:06:40;82.33;;;15.10;;
3133;SDS011;1577;49.912;10.924;2022-12-20T13:08:46;82.83;;;15.00;;
3133;SDS011;1577;49.912;10.924;2022-12-20T13:11:12;84.60;;;15.77;;
3133;SDS011;1577;49.912;10.924;2022-12-20T13:14:09;79.30;;;13.37;;
3133;SDS011;1577;49.912;10.924;2022-12-20T13:16:38;89.20;;;14.70;;
3133;SDS011;1577;49.912;10.924;2022-12-20T13:19:15;90.13;;;16.10;;
3133;SDS011;1577;49.912;10.924;2022-12-20T13:21:43;82.87;;;15.40;;
3133;SDS011;1577;49.912;10.924;2022-12-20T13:26:54;81.70;;;15.20;;
3133;SDS011;1577;49.912;10.924;2022-12-20T13:29:24;80.83;;;14.60;;
3133;SDS011;1577;49.912;10.924;2022-12-20T13:31:51;80.87;;;14.70;;
3133;SDS011;1577;49.912;10.924;2022-12-20T13:34:51;86.30;;;15.70;;
3133;SDS011;1577;49.912;10.924;2022-12-20T13:37:24;85.30;;;16.80;;
3133;SDS011;1577;49.912;10.924;2022-12-20T13:39:51;92.30;;;20.50;;
3133;SDS011;1577;49.912;10.924;2022-12-20T13:42:29;102.10;;;23.90;;
3133;SDS011;1577;49.912;10.924;2022-12-20T13:45:00;101.77;;;24.67;;
3133;SDS011;1577;49.912;10.924;2022-12-20T13:47:36;101.80;;;23.10;;
3133;SDS011;1577;49.912;10.924;2022-12-20T13:50:17;94.47;;;21.70;;
3133;SDS011;1577;49.912;10.924;2022-12-20T13:52:46;100.97;;;25.87;;
3133;SDS011;1577;49.912;10.924;2022-12-20T13:55:22;96.60;;;23.97;;
3133;SDS011;1577;49.912;10.924;2022-12-20T13:57:49;105.90;;;30.40;;
3133;SDS011;1577;49.912;10.924;2022-12-20T14:00:23;103.90;;;28.17;;
3133;SDS011;1577;49.912;10.924;2022-12-20T14:02:53;115.93;;;33.80;;
3133;SDS011;1577;49.912;10.924;2022-12-20T14:05:20;103.23;;;26.57;;
3133;SDS011;1577;49.912;10.924;2022-12-20T14:07:50;102.47;;;27.23;;
3133;SDS011;1577;49.912;10.924;2022-12-20T14:10:21;98.40;;;24.87;;
3133;SDS011;1577;49.912;10.924;2022-12-20T14:12:48;94.00;;;23.77;;
3133;SDS011;1577;49.912;10.924;2022-12-20T14:15:48;94.20;;;23.90;;
3133;SDS011;1577;49.912;10.924;2022-12-20T14:20:42;97.30;;;21.83;;
3133;SDS011;1577;49.912;10.924;2022-12-20T14:23:10;88.03;;;19.53;;
3133;SDS011;1577;49.912;10.924;2022-12-20T14:25:38;95.70;;;20.50;;
3133;SDS011;1577;49.912;10.924;2022-12-20T14:28:09;91.57;;;19.77;;
3133;SDS011;1577;49.912;10.924;2022-12-20T14:30:41;89.67;;;19.77;;
3133;SDS011;1577;49.912;10.924;2022-12-20T14:33:54;95.57;;;21.43;;
3133;SDS011;1577;49.912;10.924;2022-12-20T14:36:33;96.47;;;20.47;;
3133;SDS011;1577;49.912;10.924;2022-12-20T14:38:54;95.70;;;21.97;;
3133;SDS011;1577;49.912;10.924;2022-12-20T14:41:30;104.60;;;22.80;;
3133;SDS011;1577;49.912;10.924;2022-12-20T14:43:57;101.73;;;25.30;;
3133;SDS011;1577;49.912;10.924;2022-12-20T14:46:24;119.70;;;26.80;;
3133;SDS011;1577;49.912;10.924;2022-12-20T14:49:03;103.93;;;24.37;;
3133;SDS011;1577;49.912;10.924;2022-12-20T14:51:30;123.97;;;27.80;;
3133;SDS011;1577;49.912;10.924;2022-12-20T14:53:56;101.03;;;22.27;;
3133;SDS011;1577;49.912;10.924;2022-12-20T14:56:23;104.93;;;22.50;;
3133;SDS011;1577;49.912;10.924;2022-12-20T14:59:35;99.53;;;20.63;;
3133;SDS011;1577;49.912;10.924;2022-12-20T15:01:36;97.50;;;20.60;;
3133;SDS011;1577;49.912;10.924;2022-12-20T15:04:02;93.83;;;19.20;;
3133;SDS011;1577;49.912;10.924;2022-12-20T15:06:43;86.97;;;16.23;;
3133;SDS011;1577;49.912;10.924;2022-12-20T15:09:10;86.80;;;15.50;;
3133;SDS011;1577;49.912;10.924;2022-12-20T15:11:36;84.43;;;14.03;;
3133;SDS011;1577;49.912;10.924;2022-12-20T15:14:10;87.03;;;15.20;;
3133;SDS011;1577;49.912;10.924;2022-12-20T15:16:46;89.40;;;15.70;;
3133;SDS011;1577;49.912;10.924;2022-12-20T15:19:13;86.07;;;15.57;;
3133;SDS011;1577;49.912;10.924;2022-12-20T15:21:41;89.80;;;16.50;;
3133;SDS011;1577;49.912;10.924;2022-12-20T15:24:10;95.27;;;20.30;;
3133;SDS011;1577;49.912;10.924;2022-12-20T15:26:36;90.83;;;18.40;;
3133;SDS011;1577;49.912;10.924;2022-12-20T15:29:02;87.73;;;16.83;;
3133;SDS011;1577;49.912;10.924;2022-12-20T15:31:28;90.50;;;19.30;;
3133;SDS011;1577;49.912;10.924;2022-12-20T15:33:55;87.63;;;17.50;;
3133;SDS011;1577;49.912;10.924;2022-12-20T15:36:25;85.97;;;18.00;;
3133;SDS011;1577;49.912;10.924;2022-12-20T15:38:53;90.60;;;18.30;;
3133;SDS011;1577;49.912;10.924;2022-12-20T15:41:26;83.93;;;15.30;;
3133;SDS011;1577;49.912;10.924;2022-12-20T15:43:54;89.10;;;18.37;;
3133;SDS011;1577;49.912;10.924;2022-12-20T15:46:21;91.77;;;21.33;;
3133;SDS011;1577;49.912;10.924;2022-12-20T15:48:47;95.40;;;22.17;;
3133;SDS011;1577;49.912;10.924;2022-12-20T15:51:17;101.53;;;22.27;;
3133;SDS011;1577;49.912;10.924;2022-12-20T15:53:46;98.73;;;23.90;;
3133;SDS011;1577;49.912;10.924;2022-12-20T15:56:16;106.10;;;27.70;;
3133;SDS011;1577;49.912;10.924;2022-12-20T15:58:43;104.87;;;25.03;;
3133;SDS011;1577;49.912;10.924;2022-12-20T16:01:11;102.40;;;24.97;;
3133;SDS011;1577;49.912;10.924;2022-12-20T16:03:39;108.23;;;26.70;;
3133;SDS011;1577;49.912;10.924;2022-12-20T16:06:05;97.37;;;21.93;;
3133;SDS011;1577;49.912;10.924;2022-12-20T16:08:31;102.27;;;25.93;;
3133;SDS011;1577;49.912;10.924;2022-12-20T16:10:57;101.43;;;25.13;;
3133;SDS011;1577;49.912;10.924;2022-12-20T16:13:23;101.47;;;25.27;;
3133;SDS011;1577;49.912;10.924;2022-12-20T16:15:50;106.53;;;26.63;;
3133;SDS011;1577;49.912;10.924;2022-12-20T16:18:16;103.73;;;24.03;;
3133;SDS011;1577;49.912;10.924;2022-12-20T16:20:43;109.00;;;29.07;;
3133;SDS011;1577;49.912;10.924;2022-12-20T16:23:16;111.00;;;29.50;;
3133;SDS011;1577;49.912;10.924;2022-12-20T16:25:42;99.73;;;23.63;;